Terminal Aerodrome Forecast
Issued by NWS Twin Cities, MN

Home | Current Version | Previous Version | Graphics & Text | Print | Product List | Glossary On
Versions: 1 2 3 4 5 6 7 8 9 10 11 12 13
000
FTUS43 KMPX 140500
TAFSTC
TAF
KSTC 140520Z 1406/1506 18009KT P6SM BKN060
     FM140900 23007KT P6SM SKC
     FM141500 28012KT P6SM BKN200
     FM150000 30003KT P6SM BKN150=

USA.gov is the U.S. government's official web portal to all federal, state and local government web resources and services.